DAL2916 KSLC-KMSP
Flight info
| Callsign | DAL2916 |
|---|---|
| Flight time | N/A |
| Altitude | 33000 |
| Route | OCS J107 DPR J34 RWF |
| Aircraft | A320/M-DGVW/C |
Departure
| Time | 2026-05-07 06:58 |
|---|---|
| Airport | Salt Lake City International Airport (KSLC) |
Arrival
| Time | N/A |
|---|---|
| Airport | Minneapolis–Saint Paul International Airport / Wold–Chamberlain Field (KMSP) |
| Time | Latitude | Longitude | Altitude | Speed | Heading |
|---|---|---|---|---|---|
| 2026-05-07 06:16 | 40.78654 | -111.98107 | 4234 ft | 0 kts | 175° |
| 2026-05-07 06:47 | 40.78658 | -111.98107 | 4232 ft | 3 kts | 175° |
| 2026-05-07 06:47 | 40.78684 | -111.98110 | 4232 ft | 4 kts | 175° |
| 2026-05-07 06:47 | 40.78711 | -111.98113 | 4231 ft | 4 kts | 175° |
| 2026-05-07 06:47 | 40.78738 | -111.98116 | 4231 ft | 4 kts | 175° |
| 2026-05-07 06:48 | 40.78744 | -111.98117 | 4231 ft | 0 kts | 175° |
| 2026-05-07 06:51 | 40.78730 | -111.98092 | 4232 ft | 7 kts | 110° |
| 2026-05-07 06:51 | 40.78737 | -111.98004 | 4233 ft | 10 kts | 81° |
| 2026-05-07 06:51 | 40.78746 | -111.97911 | 4233 ft | 11 kts | 84° |
| 2026-05-07 06:51 | 40.78754 | -111.97809 | 4233 ft | 12 kts | 84° |
| 2026-05-07 06:52 | 40.78758 | -111.97743 | 4232 ft | 0 kts | 85° |
| 2026-05-07 06:53 | 40.78759 | -111.97728 | 4232 ft | 7 kts | 85° |
| 2026-05-07 06:53 | 40.78802 | -111.97675 | 4232 ft | 16 kts | 356° |
| 2026-05-07 06:53 | 40.78936 | -111.97700 | 4235 ft | 19 kts | 351° |
| 2026-05-07 06:54 | 40.79056 | -111.97718 | 4234 ft | 17 kts | 354° |
| 2026-05-07 06:54 | 40.79173 | -111.97733 | 4230 ft | 17 kts | 355° |
| 2026-05-07 06:54 | 40.79287 | -111.97743 | 4229 ft | 15 kts | 356° |
| 2026-05-07 06:54 | 40.79409 | -111.97755 | 4228 ft | 23 kts | 356° |
| 2026-05-07 06:55 | 40.79612 | -111.97777 | 4226 ft | 33 kts | 354° |
| 2026-05-07 06:55 | 40.79837 | -111.97808 | 4229 ft | 32 kts | 355° |
| 2026-05-07 06:55 | 40.80047 | -111.97830 | 4234 ft | 29 kts | 355° |
| 2026-05-07 06:55 | 40.80246 | -111.97853 | 4237 ft | 28 kts | 355° |
| 2026-05-07 06:56 | 40.80445 | -111.97877 | 4235 ft | 30 kts | 354° |
| 2026-05-07 06:56 | 40.80606 | -111.97890 | 4233 ft | 9 kts | 25° |
| 2026-05-07 06:56 | 40.80632 | -111.97822 | 4232 ft | 9 kts | 83° |
| 2026-05-07 06:56 | 40.80638 | -111.97731 | 4230 ft | 11 kts | 85° |
| 2026-05-07 06:57 | 40.80609 | -111.97675 | 4231 ft | 8 kts | 175° |
| 2026-05-07 06:57 | 40.80509 | -111.97666 | 4236 ft | 35 kts | 175° |
| 2026-05-07 06:57 | 40.79987 | -111.97598 | 4233 ft | 113 kts | 174° |
| 2026-05-07 06:57 | 40.78988 | -111.97477 | 4248 ft | 171 kts | 172° |
| 2026-05-07 06:58 | 40.77774 | -111.97360 | 4801 ft | 186 kts | 178° |
| 2026-05-07 06:58 | 40.76444 | -111.97478 | 5594 ft | 196 kts | 192° |
| 2026-05-07 06:58 | 40.75185 | -111.98132 | 6507 ft | 197 kts | 208° |
| 2026-05-07 06:58 | 40.74107 | -111.99285 | 7191 ft | 201 kts | 229° |
| 2026-05-07 06:59 | 40.73574 | -112.00288 | 7567 ft | 207 kts | 242° |
| 2026-05-07 06:59 | 40.73056 | -112.02992 | 7674 ft | 252 kts | 273° |
| 2026-05-07 06:59 | 40.73267 | -112.04574 | 7586 ft | 279 kts | 288° |
| 2026-05-07 06:59 | 40.74158 | -112.06870 | 7587 ft | 280 kts | 304° |
| 2026-05-07 07:00 | 40.75671 | -112.09616 | 7549 ft | 279 kts | 305° |
| 2026-05-07 07:00 | 40.76816 | -112.11672 | 7549 ft | 279 kts | 306° |
| 2026-05-07 07:00 | 40.77599 | -112.13065 | 7558 ft | 279 kts | 306° |
| 2026-05-07 07:00 | 40.78690 | -112.15154 | 7597 ft | 275 kts | 298° |
| 2026-05-07 07:01 | 40.80194 | -112.17811 | 8013 ft | 278 kts | 319° |
| 2026-05-07 07:01 | 40.81291 | -112.18724 | 8258 ft | 276 kts | 335° |
| 2026-05-07 07:01 | 40.83174 | -112.19232 | 8758 ft | 281 kts | 0° |
| 2026-05-07 07:01 | 40.85094 | -112.18628 | 9266 ft | 288 kts | 25° |
| 2026-05-07 07:02 | 40.86673 | -112.16974 | 9792 ft | 295 kts | 45° |
| 2026-05-07 07:02 | 40.88039 | -112.14957 | 10276 ft | 298 kts | 45° |
| 2026-05-07 07:02 | 40.89441 | -112.12868 | 10772 ft | 309 kts | 45° |
| 2026-05-07 07:02 | 40.90904 | -112.10682 | 11102 ft | 327 kts | 45° |
| 2026-05-07 07:03 | 40.92456 | -112.08362 | 11175 ft | 344 kts | 45° |
| 2026-05-07 07:03 | 40.94035 | -112.06003 | 11243 ft | 350 kts | 45° |
| 2026-05-07 07:03 | 40.95674 | -112.03553 | 11948 ft | 353 kts | 45° |
| 2026-05-07 07:03 | 40.97289 | -112.01140 | 12664 ft | 355 kts | 45° |
| 2026-05-07 07:04 | 40.98930 | -111.98689 | 13369 ft | 357 kts | 45° |
| 2026-05-07 07:04 | 41.00604 | -111.96188 | 14049 ft | 360 kts | 45° |
| 2026-05-07 07:04 | 41.02221 | -111.93774 | 14658 ft | 362 kts | 45° |
| 2026-05-07 07:04 | 41.03891 | -111.91277 | 15285 ft | 364 kts | 45° |
| 2026-05-07 07:05 | 41.05572 | -111.88761 | 15924 ft | 366 kts | 44° |
| 2026-05-07 07:05 | 41.07265 | -111.86223 | 16544 ft | 368 kts | 44° |
| 2026-05-07 07:05 | 41.08960 | -111.83684 | 17168 ft | 369 kts | 44° |
| 2026-05-07 07:05 | 41.10553 | -111.80978 | 17734 ft | 377 kts | 54° |
| 2026-05-07 07:06 | 41.11662 | -111.77795 | 18300 ft | 387 kts | 68° |
| 2026-05-07 07:06 | 41.12168 | -111.74241 | 18750 ft | 399 kts | 83° |
| 2026-05-07 07:06 | 41.11981 | -111.70531 | 19209 ft | 409 kts | 98° |
| 2026-05-07 07:06 | 41.11183 | -111.66879 | 19673 ft | 415 kts | 105° |
| 2026-05-07 07:07 | 41.10293 | -111.63224 | 20157 ft | 418 kts | 105° |
| 2026-05-07 07:07 | 41.09396 | -111.59555 | 20614 ft | 421 kts | 105° |
| 2026-05-07 07:07 | 41.08491 | -111.55844 | 21082 ft | 425 kts | 105° |
| 2026-05-07 07:07 | 41.07578 | -111.52101 | 21560 ft | 428 kts | 105° |
| 2026-05-07 07:08 | 41.06657 | -111.48331 | 22031 ft | 431 kts | 105° |
| 2026-05-07 07:08 | 41.05747 | -111.44527 | 22502 ft | 434 kts | 102° |
| 2026-05-07 07:08 | 41.05179 | -111.40615 | 22952 ft | 433 kts | 92° |
| 2026-05-07 07:08 | 41.05085 | -111.36650 | 23393 ft | 431 kts | 82° |
| 2026-05-07 07:09 | 41.05390 | -111.32707 | 23807 ft | 431 kts | 78° |
| 2026-05-07 07:09 | 41.05745 | -111.28747 | 24154 ft | 434 kts | 78° |
| 2026-05-07 07:09 | 41.06096 | -111.24763 | 24545 ft | 436 kts | 78° |
| 2026-05-07 07:09 | 41.06444 | -111.20759 | 24917 ft | 438 kts | 78° |
| 2026-05-07 07:10 | 41.06787 | -111.16728 | 25282 ft | 441 kts | 79° |
| 2026-05-07 07:10 | 41.07127 | -111.12685 | 25656 ft | 443 kts | 79° |
| 2026-05-07 07:10 | 41.07468 | -111.08628 | 26003 ft | 444 kts | 78° |
| 2026-05-07 07:10 | 41.08012 | -111.04610 | 26323 ft | 441 kts | 70° |
| 2026-05-07 07:11 | 41.08952 | -111.00765 | 26645 ft | 439 kts | 65° |
| 2026-05-07 07:11 | 41.09969 | -110.96936 | 26969 ft | 441 kts | 65° |
| 2026-05-07 07:11 | 41.10986 | -110.93093 | 27294 ft | 443 kts | 65° |
| 2026-05-07 07:11 | 41.12007 | -110.89230 | 27598 ft | 445 kts | 65° |
| 2026-05-07 07:12 | 41.13030 | -110.85343 | 27906 ft | 447 kts | 65° |
| 2026-05-07 07:12 | 41.14049 | -110.81439 | 28205 ft | 449 kts | 65° |
| 2026-05-07 07:12 | 41.15069 | -110.77519 | 28499 ft | 452 kts | 65° |
| 2026-05-07 07:12 | 41.16099 | -110.73569 | 28758 ft | 454 kts | 65° |
| 2026-05-07 07:13 | 41.17135 | -110.69590 | 29030 ft | 456 kts | 65° |
| 2026-05-07 07:13 | 41.18166 | -110.65601 | 29290 ft | 458 kts | 65° |
| 2026-05-07 07:13 | 41.19196 | -110.61591 | 29563 ft | 460 kts | 65° |
| 2026-05-07 07:13 | 41.20230 | -110.57548 | 29819 ft | 462 kts | 65° |
| 2026-05-07 07:14 | 41.21264 | -110.53503 | 30074 ft | 464 kts | 65° |
| 2026-05-07 07:14 | 41.22306 | -110.49440 | 30313 ft | 466 kts | 65° |
| 2026-05-07 07:14 | 41.23352 | -110.45359 | 30545 ft | 467 kts | 65° |
| 2026-05-07 07:14 | 41.24394 | -110.41286 | 30795 ft | 467 kts | 65° |
| 2026-05-07 07:15 | 41.25425 | -110.37246 | 31034 ft | 466 kts | 65° |
| 2026-05-07 07:15 | 41.26461 | -110.33172 | 31339 ft | 465 kts | 65° |
| 2026-05-07 07:15 | 41.27492 | -110.29107 | 31620 ft | 464 kts | 65° |
| 2026-05-07 07:15 | 41.28518 | -110.25049 | 31894 ft | 463 kts | 65° |
| 2026-05-07 07:16 | 41.29541 | -110.21003 | 32162 ft | 462 kts | 65° |
| 2026-05-07 07:16 | 41.30566 | -110.16958 | 32432 ft | 461 kts | 65° |
| 2026-05-07 07:16 | 41.31587 | -110.12924 | 32715 ft | 460 kts | 65° |
| 2026-05-07 07:16 | 41.32604 | -110.08897 | 32958 ft | 460 kts | 65° |
| 2026-05-07 07:17 | 41.33621 | -110.04858 | 33138 ft | 460 kts | 65° |
| 2026-05-07 07:17 | 41.34638 | -110.00811 | 33178 ft | 464 kts | 65° |
| 2026-05-07 07:17 | 41.36696 | -109.92607 | 33149 ft | 471 kts | 65° |
| 2026-05-07 07:18 | 41.38766 | -109.84315 | 33149 ft | 472 kts | 65° |
| 2026-05-07 07:18 | 41.40829 | -109.76003 | 33147 ft | 474 kts | 65° |
| 2026-05-07 07:19 | 41.42899 | -109.67652 | 33152 ft | 475 kts | 65° |
| 2026-05-07 07:19 | 41.44968 | -109.59285 | 33150 ft | 475 kts | 65° |
| 2026-05-07 07:20 | 41.47032 | -109.50912 | 33150 ft | 475 kts | 65° |
| 2026-05-07 07:20 | 41.49079 | -109.42534 | 33171 ft | 476 kts | 65° |
| 2026-05-07 07:21 | 41.51113 | -109.34199 | 33176 ft | 476 kts | 65° |
| 2026-05-07 07:21 | 41.53158 | -109.25795 | 33181 ft | 476 kts | 65° |
| 2026-05-07 07:22 | 41.55197 | -109.17387 | 33186 ft | 476 kts | 66° |
| 2026-05-07 07:22 | 41.57231 | -109.08971 | 33202 ft | 476 kts | 66° |
| 2026-05-07 07:23 | 41.59668 | -109.00843 | 33201 ft | 464 kts | 53° |
| 2026-05-07 07:23 | 41.63385 | -108.93937 | 33193 ft | 457 kts | 46° |
| 2026-05-07 07:24 | 41.67253 | -108.87180 | 33181 ft | 458 kts | 46° |
| 2026-05-07 07:24 | 41.71116 | -108.80390 | 33144 ft | 459 kts | 46° |
| 2026-05-07 07:25 | 41.76915 | -108.70174 | 33125 ft | 460 kts | 46° |
| 2026-05-07 07:26 | 41.77543 | -108.69069 | 33116 ft | 460 kts | 46° |
| 2026-05-07 07:26 | 41.84791 | -108.56251 | 33107 ft | 460 kts | 46° |
| 2026-05-07 07:27 | 41.88654 | -108.49399 | 33100 ft | 460 kts | 46° |